Time;durP1;ratioP1;P1;durP2;ratioP2;P2;SDS_P1;SDS_P2;PMS_P1;PMS_P2;Temp;Humidity;BMP_temperature;BMP_pressure;BME280_temperature;BME280_humidity;BME280_pressure;Samples;Min_cycle;Max_cycle;Signal;HPM_P1;HPM_P2
2023/06/02 00:01:00;;;;;;;10.35;2.30;;;10.70;99.90;;;;;;6209349;23;20207;-42
2023/06/02 00:03:37;;;;;;;14.82;3.00;;;10.70;99.90;;;;;;6186079;23;20028;-42
2023/06/02 00:06:05;;;;;;;13.93;3.35;;;10.70;99.90;;;;;;6214006;23;20255;-42
2023/06/02 00:08:32;;;;;;;8.32;2.80;;;10.70;99.90;;;;;;6214241;23;20013;-41
2023/06/02 00:11:00;;;;;;;10.35;2.70;;;10.70;99.90;;;;;;6187413;23;20013;-43
2023/06/02 00:13:26;;;;;;;9.20;2.37;;;10.60;99.90;;;;;;6213974;23;20012;-42
2023/06/02 00:15:52;;;;;;;9.23;2.67;;;10.60;99.90;;;;;;6187526;23;20243;-42
2023/06/02 00:18:20;;;;;;;9.60;2.30;;;10.60;99.90;;;;;;6214321;23;20024;-42
2023/06/02 00:20:46;;;;;;;8.13;2.30;;;10.60;99.90;;;;;;6213776;23;20013;-42
2023/06/02 00:23:12;;;;;;;14.20;3.40;;;10.60;99.90;;;;;;6210318;23;20016;-42
2023/06/02 00:25:39;;;;;;;11.48;3.08;;;10.60;99.90;;;;;;6212815;23;20035;-42
2023/06/02 00:28:05;;;;;;;9.83;2.50;;;10.60;99.90;;;;;;6213477;23;20017;-41
2023/06/02 00:30:31;;;;;;;8.93;2.55;;;10.50;99.90;;;;;;6213527;23;20017;-41
2023/06/02 00:32:57;;;;;;;10.32;2.58;;;10.50;99.90;;;;;;6187129;23;20108;-41
2023/06/02 00:35:22;;;;;;;10.10;2.72;;;10.50;99.90;;;;;;6213035;23;20070;-42
2023/06/02 00:37:48;;;;;;;8.98;2.70;;;10.50;99.90;;;;;;6213040;23;20031;-42
2023/06/02 00:40:14;;;;;;;10.20;2.83;;;10.50;99.90;;;;;;6212745;23;20384;-43
2023/06/02 00:42:39;;;;;;;10.00;2.83;;;10.50;99.90;;;;;;6214193;23;20048;-41
2023/06/02 00:45:06;;;;;;;15.80;2.88;;;10.50;99.90;;;;;;6214975;23;20055;-42
2023/06/02 00:47:31;;;;;;;10.00;2.47;;;10.50;99.90;;;;;;6187287;23;20030;-43
2023/06/02 00:49:58;;;;;;;14.45;2.65;;;10.60;99.90;;;;;;6186185;23;20437;-42
2023/06/02 00:52:24;;;;;;;11.02;2.42;;;10.30;99.90;;;;;;6186458;23;20455;-41
2023/06/02 00:54:50;;;;;;;14.52;2.80;;;10.50;99.90;;;;;;6212935;23;20017;-42
2023/06/02 00:57:16;;;;;;;12.30;2.85;;;10.50;99.90;;;;;;6212635;23;20474;-41
2023/06/02 00:59:43;;;;;;;10.05;2.42;;;10.60;99.90;;;;;;6212818;23;20326;-43
2023/06/02 01:02:10;;;;;;;13.90;3.10;;;10.60;99.90;;;;;;6213550;23;20023;-43
2023/06/02 01:04:40;;;;;;;10.15;2.85;;;10.50;99.90;;;;;;6212595;23;20012;-42
2023/06/02 01:07:07;;;;;;;10.15;2.70;;;10.50;99.90;;;;;;6209499;23;20016;-42
2023/06/02 01:09:33;;;;;;;11.48;2.92;;;10.50;99.90;;;;;;6209933;23;20325;-42
2023/06/02 01:11:59;;;;;;;13.75;3.55;;;10.50;99.90;;;;;;6185547;23;20012;-41
2023/06/02 01:14:25;;;;;;;15.25;3.30;;;10.60;99.90;;;;;;6213470;23;20032;-42
2023/06/02 01:16:51;;;;;;;15.00;3.20;;;10.50;99.90;;;;;;6213183;23;20437;-42
2023/06/02 01:19:21;;;;;;;14.13;2.47;;;10.50;99.90;;;;;;6213413;23;20012;-42
2023/06/02 01:21:59;;;;;;;13.10;3.00;;;10.50;99.90;;;;;;6213336;23;20345;-43
2023/06/02 01:24:35;;;;;;;13.02;2.55;;;10.50;99.90;;;;;;6214655;23;20019;-42
2023/06/02 01:27:06;;;;;;;11.05;3.10;;;10.40;99.90;;;;;;6215313;23;20392;-44
2023/06/02 01:29:35;;;;;;;11.93;2.80;;;10.40;99.90;;;;;;6214895;23;20020;-42
2023/06/02 01:32:22;;;;;;;13.73;2.72;;;10.40;99.90;;;;;;6215222;23;20028;-42
2023/06/02 01:34:55;;;;;;;10.40;2.63;;;10.40;99.90;;;;;;6214778;23;20515;-41
2023/06/02 01:37:22;;;;;;;12.15;3.35;;;10.40;99.90;;;;;;6214313;23;20021;-43
2023/06/02 01:39:49;;;;;;;15.20;3.03;;;10.40;99.90;;;;;;6214889;23;20023;-45
2023/06/02 01:42:16;;;;;;;16.10;3.30;;;10.40;99.90;;;;;;6214802;23;20016;-43
2023/06/02 01:44:43;;;;;;;12.60;3.13;;;10.40;99.90;;;;;;6215103;23;20071;-43
2023/06/02 01:47:12;;;;;;;17.08;3.20;;;10.40;99.90;;;;;;6217673;23;20019;-44
2023/06/02 01:49:38;;;;;;;18.00;4.05;;;10.40;99.90;;;;;;6215434;23;20464;-42
2023/06/02 01:52:04;;;;;;;18.73;3.10;;;10.40;99.90;;;;;;6214742;23;20017;-41
2023/06/02 01:54:31;;;;;;;11.07;2.70;;;10.40;99.90;;;;;;6214733;23;20036;-41
2023/06/02 01:56:56;;;;;;;14.10;3.33;;;10.40;99.90;;;;;;6214172;23;20108;-41
2023/06/02 01:59:22;;;;;;;13.98;3.25;;;10.40;99.90;;;;;;6188412;23;20016;-43
2023/06/02 02:01:48;;;;;;;9.80;2.47;;;10.40;99.90;;;;;;6214765;23;20019;-41
2023/06/02 02:04:13;;;;;;;13.55;3.55;;;10.40;99.90;;;;;;6214517;23;20008;-44
2023/06/02 02:06:39;;;;;;;15.65;3.20;;;10.40;99.90;;;;;;6162988;23;20013;-41
2023/06/02 02:09:07;;;;;;;15.60;3.17;;;10.40;99.90;;;;;;6187622;23;20425;-41
2023/06/02 02:11:33;;;;;;;10.70;2.80;;;10.40;99.90;;;;;;6215063;23;20017;-41
2023/06/02 02:14:00;;;;;;;12.23;2.55;;;10.40;99.90;;;;;;6211894;23;20063;-42
2023/06/02 02:16:25;;;;;;;13.43;2.42;;;10.40;99.90;;;;;;6209886;23;20456;-42
2023/06/02 02:18:52;;;;;;;13.55;3.10;;;10.30;99.90;;;;;;6214742;23;20040;-42
2023/06/02 02:21:18;;;;;;;13.63;3.50;;;10.30;99.90;;;;;;6187598;23;20025;-41
2023/06/02 02:23:44;;;;;;;10.05;2.80;;;10.30;99.90;;;;;;6214101;23;20019;-41
2023/06/02 02:26:10;;;;;;;15.70;2.60;;;10.30;99.90;;;;;;6187383;23;20464;-42
2023/06/02 02:28:37;;;;;;;13.88;3.05;;;10.30;99.90;;;;;;6214549;23;20023;-43
2023/06/02 02:31:04;;;;;;;11.25;3.15;;;10.30;99.90;;;;;;6214424;23;20286;-43
2023/06/02 02:33:30;;;;;;;12.27;3.05;;;10.30;99.90;;;;;;6214331;23;20016;-42
2023/06/02 02:35:56;;;;;;;10.20;2.83;;;10.30;99.90;;;;;;6213431;23;20095;-44
2023/06/02 02:38:22;;;;;;;14.20;3.20;;;10.30;99.90;;;;;;6213522;23;20080;-42
2023/06/02 02:40:47;;;;;;;14.93;2.70;;;10.30;99.90;;;;;;6214158;23;20050;-44
2023/06/02 02:43:15;;;;;;;13.10;3.05;;;10.30;99.90;;;;;;6210643;23;20048;-41
2023/06/02 02:45:41;;;;;;;15.85;2.85;;;10.30;99.90;;;;;;6210684;23;20008;-44
2023/06/02 02:48:07;;;;;;;13.32;3.28;;;10.30;99.90;;;;;;6213942;23;20356;-41
2023/06/02 02:50:33;;;;;;;13.75;3.15;;;10.30;99.90;;;;;;6218600;23;20033;-42
2023/06/02 02:52:58;;;;;;;15.35;2.80;;;10.30;99.90;;;;;;6213184;23;20433;-41
2023/06/02 02:55:25;;;;;;;15.98;2.83;;;10.30;99.90;;;;;;6213980;23;20476;-42
2023/06/02 02:57:51;;;;;;;12.20;3.00;;;10.30;99.90;;;;;;6187009;23;20070;-41
2023/06/02 03:00:17;;;;;;;20.75;3.60;;;10.40;99.90;;;;;;6214449;23;20450;-42
2023/06/02 03:02:43;;;;;;;15.35;3.08;;;10.30;99.90;;;;;;6214407;23;20020;-41
2023/06/02 03:05:13;;;;;;;12.00;3.03;;;10.30;99.90;;;;;;6213728;23;20333;-41
2023/06/02 03:07:39;;;;;;;14.85;3.70;;;10.30;99.90;;;;;;6213893;23;20352;-44
2023/06/02 03:10:06;;;;;;;18.42;3.13;;;10.40;99.90;;;;;;6213930;23;20019;-43
2023/06/02 03:12:32;;;;;;;17.13;3.33;;;10.40;99.90;;;;;;6213465;23;20028;-44
2023/06/02 03:14:57;;;;;;;13.82;3.58;;;10.40;99.90;;;;;;6213806;23;20017;-44
2023/06/02 03:17:23;;;;;;;10.95;2.97;;;10.40;99.90;;;;;;6211458;23;20024;-41
2023/06/02 03:19:49;;;;;;;17.83;3.25;;;10.40;99.90;;;;;;6210449;23;20012;-41
2023/06/02 03:22:15;;;;;;;11.35;3.35;;;10.40;99.90;;;;;;6184977;23;20017;-42
2023/06/02 03:24:40;;;;;;;13.77;3.40;;;10.40;99.90;;;;;;6184011;23;20021;-42
2023/06/02 03:27:13;;;;;;;18.83;2.97;;;10.40;99.90;;;;;;6213970;23;20017;-43
2023/06/02 03:29:39;;;;;;;15.38;3.30;;;10.40;99.90;;;;;;6214066;23;20056;-42
2023/06/02 03:32:09;;;;;;;15.13;2.90;;;10.40;99.90;;;;;;6187471;23;20017;-43
2023/06/02 03:34:35;;;;;;;12.20;3.13;;;10.40;99.90;;;;;;6214389;23;20017;-42
2023/06/02 03:37:01;;;;;;;12.82;2.92;;;10.40;99.90;;;;;;6214551;23;20015;-42
2023/06/02 03:39:27;;;;;;;13.05;3.10;;;10.40;99.90;;;;;;6187997;23;20016;-42
2023/06/02 03:41:52;;;;;;;9.05;2.85;;;10.50;99.90;;;;;;6214623;23;20374;-41
2023/06/02 03:44:18;;;;;;;14.68;3.10;;;10.40;99.90;;;;;;6187838;23;20024;-41
2023/06/02 03:46:44;;;;;;;11.57;2.80;;;10.50;99.90;;;;;;6187445;23;20024;-44
2023/06/02 03:49:09;;;;;;;15.55;3.25;;;10.50;99.90;;;;;;6214897;23;20021;-41
2023/06/02 03:51:35;;;;;;;13.65;3.08;;;10.50;99.90;;;;;;6215794;23;20008;-41
2023/06/02 03:54:01;;;;;;;12.75;3.00;;;10.50;99.90;;;;;;6216928;23;20441;-41
2023/06/02 03:56:26;;;;;;;15.82;3.20;;;10.50;99.90;;;;;;6213928;23;20017;-44
2023/06/02 03:58:52;;;;;;;13.40;3.20;;;10.50;99.90;;;;;;6214330;23;20016;-43
2023/06/02 04:01:18;;;;;;;13.13;3.17;;;10.50;99.90;;;;;;6213885;23;20013;-41
2023/06/02 04:03:44;;;;;;;10.98;2.75;;;10.60;99.90;;;;;;6213798;23;20064;-41
2023/06/02 04:06:11;;;;;;;17.98;3.40;;;10.60;99.90;;;;;;6214267;23;20013;-44
2023/06/02 04:08:37;;;;;;;11.32;2.92;;;10.60;99.90;;;;;;6214099;23;20427;-42
2023/06/02 04:11:03;;;;;;;15.63;3.28;;;10.60;99.90;;;;;;6210855;23;20051;-42
2023/06/02 04:13:29;;;;;;;11.77;3.00;;;10.60;99.90;;;;;;6211524;23;20017;-41
2023/06/02 04:15:54;;;;;;;14.68;2.90;;;10.60;99.90;;;;;;6211379;23;20017;-42
2023/06/02 04:18:20;;;;;;;11.43;3.45;;;10.60;99.90;;;;;;6211517;23;20048;-43
2023/06/02 04:20:46;;;;;;;12.98;3.28;;;10.60;99.90;;;;;;6211264;23;20340;-45
2023/06/02 04:23:12;;;;;;;10.10;2.75;;;10.60;99.90;;;;;;6211411;23;20312;-44
2023/06/02 04:25:38;;;;;;;13.50;3.10;;;10.60;99.90;;;;;;6211602;23;20043;-43
2023/06/02 04:28:03;;;;;;;13.35;2.70;;;10.60;99.90;;;;;;6184710;23;20290;-42
2023/06/02 04:30:29;;;;;;;16.35;2.75;;;10.60;99.90;;;;;;6211620;23;20020;-42
2023/06/02 04:32:55;;;;;;;14.13;2.92;;;10.60;99.90;;;;;;6184446;23;20307;-43
2023/06/02 04:35:21;;;;;;;14.75;3.30;;;10.60;99.90;;;;;;6184503;23;20028;-42
2023/06/02 04:37:46;;;;;;;15.50;2.88;;;10.70;99.90;;;;;;6210956;23;20040;-42
2023/06/02 04:40:15;;;;;;;13.90;2.67;;;10.70;99.90;;;;;;6184913;23;20020;-45
2023/06/02 04:42:41;;;;;;;17.25;3.00;;;10.70;99.90;;;;;;6183998;23;20013;-43
2023/06/02 04:45:11;;;;;;;13.35;3.00;;;10.80;99.90;;;;;;6211248;23;20083;-43
2023/06/02 04:47:36;;;;;;;13.15;3.30;;;10.80;99.90;;;;;;6210675;23;20005;-42
2023/06/02 04:50:02;;;;;;;15.27;3.00;;;10.80;99.90;;;;;;6211094;23;20135;-42
2023/06/02 04:52:28;;;;;;;12.43;3.45;;;10.80;99.90;;;;;;6208332;23;20081;-41
2023/06/02 04:54:53;;;;;;;17.88;2.97;;;10.80;99.90;;;;;;6210927;23;20013;-43
2023/06/02 04:57:19;;;;;;;12.55;3.00;;;10.80;99.90;;;;;;6210667;23;20441;-42
2023/06/02 04:59:44;;;;;;;10.60;2.80;;;10.90;99.90;;;;;;6212199;23;20040;-42
2023/06/02 05:02:10;;;;;;;13.48;2.92;;;11.00;99.90;;;;;;6213358;23;20009;-42
2023/06/02 05:04:36;;;;;;;12.55;3.10;;;11.00;99.90;;;;;;6211920;23;20512;-40
2023/06/02 05:07:03;;;;;;;16.20;2.92;;;11.00;99.90;;;;;;6212495;23;20020;-41
2023/06/02 05:09:29;;;;;;;14.27;3.08;;;11.10;99.90;;;;;;6187092;23;20009;-41
2023/06/02 05:11:54;;;;;;;17.15;3.05;;;11.10;99.90;;;;;;6213574;23;20550;-42
2023/06/02 05:14:20;;;;;;;17.60;3.20;;;11.20;99.90;;;;;;6212181;23;20071;-45
2023/06/02 05:16:46;;;;;;;14.02;3.78;;;11.30;99.90;;;;;;6185770;23;20088;-41
2023/06/02 05:19:11;;;;;;;18.02;2.97;;;11.30;99.90;;;;;;6214033;23;20012;-42
2023/06/02 05:21:37;;;;;;;14.43;3.58;;;11.40;99.90;;;;;;6213001;23;20433;-41
2023/06/02 05:24:02;;;;;;;17.67;3.38;;;11.40;99.90;;;;;;6213170;23;20013;-41
2023/06/02 05:26:28;;;;;;;10.80;2.88;;;11.40;99.90;;;;;;6213571;23;20344;-40
2023/06/02 05:28:54;;;;;;;14.23;3.10;;;11.40;99.90;;;;;;6185966;23;20371;-42
2023/06/02 05:31:20;;;;;;;12.38;3.15;;;11.50;99.90;;;;;;6207738;23;20050;-41
2023/06/02 05:33:45;;;;;;;19.08;3.50;;;11.60;99.90;;;;;;6210211;23;20008;-41
2023/06/02 05:36:11;;;;;;;13.57;3.17;;;11.60;99.90;;;;;;6210610;23;20039;-41
2023/06/02 05:38:42;;;;;;;14.40;2.50;;;11.70;99.90;;;;;;6210930;23;20083;-42
2023/06/02 05:41:07;;;;;;;13.30;2.85;;;11.70;99.90;;;;;;6209754;23;20017;-43
2023/06/02 05:43:33;;;;;;;13.57;2.75;;;11.80;99.90;;;;;;6211458;23;20098;-42
2023/06/02 05:45:59;;;;;;;14.75;2.97;;;11.90;99.90;;;;;;6211463;23;20040;-44
2023/06/02 05:48:25;;;;;;;15.15;2.88;;;11.90;99.90;;;;;;6211920;23;20012;-43
2023/06/02 05:50:50;;;;;;;12.02;2.83;;;12.00;99.90;;;;;;6212138;23;20020;-41
2023/06/02 05:53:16;;;;;;;13.25;2.83;;;12.00;99.90;;;;;;6212449;23;20020;-42
2023/06/02 05:55:41;;;;;;;23.13;3.60;;;12.10;99.90;;;;;;6185838;23;20069;-41
2023/06/02 05:58:07;;;;;;;19.75;3.38;;;12.00;99.90;;;;;;6184821;23;20091;-41
2023/06/02 06:00:32;;;;;;;18.77;3.33;;;12.00;99.90;;;;;;6215916;23;20341;-41
2023/06/02 06:02:58;;;;;;;13.80;3.45;;;12.00;99.90;;;;;;6187684;23;20016;-42
2023/06/02 06:05:24;;;;;;;18.73;3.40;;;12.00;99.90;;;;;;6214719;23;20013;-42
2023/06/02 06:07:49;;;;;;;10.27;2.97;;;12.10;99.90;;;;;;6214545;23;20477;-42
2023/06/02 06:10:15;;;;;;;13.48;3.70;;;12.10;99.90;;;;;;6213672;23;20017;-43
2023/06/02 06:12:40;;;;;;;13.65;3.63;;;12.10;99.90;;;;;;6214378;23;20020;-42
2023/06/02 06:15:07;;;;;;;15.10;3.53;;;12.10;99.90;;;;;;6214809;23;20022;-45
2023/06/02 06:17:32;;;;;;;13.63;3.35;;;12.10;99.90;;;;;;6214891;23;20017;-43
2023/06/02 06:19:58;;;;;;;15.23;3.50;;;12.20;99.90;;;;;;6214879;23;20082;-45
2023/06/02 06:22:23;;;;;;;15.10;3.72;;;12.30;99.90;;;;;;6214665;23;20402;-42
2023/06/02 06:24:49;;;;;;;16.88;3.55;;;12.30;99.90;;;;;;6214653;23;20013;-43
2023/06/02 06:27:15;;;;;;;15.38;3.13;;;12.20;99.90;;;;;;6214815;23;20013;-45
2023/06/02 06:29:40;;;;;;;13.20;3.22;;;12.20;99.90;;;;;;6214249;23;20095;-43
2023/06/02 06:32:06;;;;;;;13.73;3.10;;;12.20;99.90;;;;;;6214240;23;20039;-42
2023/06/02 06:34:32;;;;;;;14.27;3.10;;;12.30;99.90;;;;;;6214891;23;20020;-47
2023/06/02 06:36:58;;;;;;;16.75;3.45;;;12.20;99.90;;;;;;6214189;23;20449;-44
2023/06/02 06:39:23;;;;;;;14.73;3.55;;;12.30;99.90;;;;;;6214004;23;20008;-42
2023/06/02 06:41:49;;;;;;;12.73;2.85;;;12.30;99.90;;;;;;6213282;23;20016;-43
2023/06/02 06:44:15;;;;;;;17.83;4.45;;;12.20;99.90;;;;;;6211775;23;20135;-42
2023/06/02 06:46:41;;;;;;;17.02;3.38;;;12.20;99.90;;;;;;6209676;23;20044;-41
2023/06/02 06:49:07;;;;;;;14.27;3.10;;;12.20;99.90;;;;;;6212474;23;20020;-44
2023/06/02 06:51:33;;;;;;;16.23;3.33;;;12.30;99.90;;;;;;6214216;23;20019;-42
2023/06/02 06:53:58;;;;;;;19.65;3.70;;;12.40;99.90;;;;;;6214015;23;20360;-43
2023/06/02 06:56:25;;;;;;;16.52;3.40;;;12.40;99.90;;;;;;6213992;23;20062;-44
2023/06/02 06:58:51;;;;;;;22.95;3.95;;;12.40;99.90;;;;;;6214493;23;20028;-41
2023/06/02 07:01:17;;;;;;;15.00;3.97;;;12.50;99.90;;;;;;6186594;23;20036;-42
2023/06/02 07:03:42;;;;;;;20.52;4.18;;;12.60;99.90;;;;;;6216054;23;20023;-42
2023/06/02 07:06:08;;;;;;;12.60;3.40;;;12.50;99.90;;;;;;6215153;23;20019;-44
2023/06/02 07:08:36;;;;;;;18.42;3.70;;;12.60;99.90;;;;;;6214739;23;20013;-42
2023/06/02 07:11:02;;;;;;;16.92;3.53;;;;;;;;;;6214214;23;20027;-42
2023/06/02 07:13:27;;;;;;;18.98;4.20;;;12.70;99.90;;;;;;6214225;23;20017;-43
2023/06/02 07:15:53;;;;;;;16.88;3.85;;;12.80;99.90;;;;;;6213796;23;20337;-44
2023/06/02 07:18:19;;;;;;;16.02;3.50;;;13.00;99.90;;;;;;6214000;23;20046;-42
2023/06/02 07:20:44;;;;;;;13.63;3.97;;;13.00;99.90;;;;;;6185735;23;20020;-42
2023/06/02 07:23:10;;;;;;;17.98;4.82;;;12.80;99.90;;;;;;6187024;23;20031;-42
2023/06/02 07:25:36;;;;;;;17.45;4.22;;;13.00;99.90;;;;;;6213490;23;20020;-42
2023/06/02 07:28:05;;;;;;;20.80;4.85;;;13.30;99.90;;;;;;6213206;23;20031;-44
2023/06/02 07:30:31;;;;;;;18.25;4.72;;;13.00;99.90;;;;;;6214001;23;20413;-42
2023/06/02 07:32:57;;;;;;;18.52;4.60;;;13.10;99.90;;;;;;6211616;23;20013;-45
2023/06/02 07:35:23;;;;;;;16.80;4.55;;;13.00;99.90;;;;;;6212669;23;20417;-43
2023/06/02 07:37:53;;;;;;;17.25;4.60;;;13.30;99.90;;;;;;6212734;23;20013;-41
2023/06/02 07:40:19;;;;;;;17.23;4.70;;;13.30;99.90;;;;;;6212335;23;20318;-43
2023/06/02 07:42:46;;;;;;;21.48;4.78;;;13.50;99.90;;;;;;6213603;23;20013;-42
2023/06/02 07:45:12;;;;;;;20.10;5.05;;;13.50;99.90;;;;;;6213669;23;20337;-42
2023/06/02 07:47:38;;;;;;;17.08;5.20;;;13.70;99.90;;;;;;6213527;23;20488;-42
2023/06/02 07:50:03;;;;;;;20.92;5.10;;;13.70;99.90;;;;;;6186188;23;20025;-43
2023/06/02 07:52:29;;;;;;;19.48;4.75;;;13.70;99.90;;;;;;6211989;23;20092;-43
2023/06/02 07:54:55;;;;;;;19.83;4.40;;;13.80;99.90;;;;;;6211846;23;20017;-45
2023/06/02 07:57:21;;;;;;;19.58;4.90;;;13.90;99.90;;;;;;6214289;23;20044;-41
2023/06/02 07:59:48;;;;;;;18.73;5.00;;;13.80;99.90;;;;;;6187971;23;20048;-44
2023/06/02 08:02:13;;;;;;;19.80;5.27;;;14.00;99.90;;;;;;6213910;23;20021;-42
2023/06/02 08:04:39;;;;;;;19.55;5.05;;;13.90;99.90;;;;;;6213643;23;20376;-44
2023/06/02 08:07:05;;;;;;;17.17;5.07;;;13.80;99.90;;;;;;6210544;23;20092;-43
2023/06/02 08:09:32;;;;;;;19.25;5.20;;;14.00;99.90;;;;;;6210846;23;20480;-42
2023/06/02 08:11:58;;;;;;;18.98;5.30;;;14.00;99.90;;;;;;6209901;23;20071;-43
2023/06/02 08:14:24;;;;;;;19.27;5.35;;;14.00;99.90;;;;;;6181879;23;20456;-43
2023/06/02 08:16:52;;;;;;;24.25;5.50;;;14.20;99.90;;;;;;6208938;23;20051;-43
2023/06/02 08:19:19;;;;;;;16.95;5.43;;;14.10;99.90;;;;;;6208190;23;20017;-43
2023/06/02 08:21:45;;;;;;;16.80;5.10;;;14.30;99.90;;;;;;6207890;23;20089;-44
2023/06/02 08:24:11;;;;;;;24.65;6.38;;;14.30;99.90;;;;;;6209275;23;20013;-43
2023/06/02 08:26:39;;;;;;;21.75;5.32;;;14.50;99.90;;;;;;6208534;23;20445;-44
2023/06/02 08:29:08;;;;;;;16.65;4.72;;;14.40;99.90;;;;;;6208894;23;20346;-44
2023/06/02 08:31:36;;;;;;;23.38;4.82;;;14.40;99.90;;;;;;6206929;23;20048;-42
2023/06/02 08:34:06;;;;;;;17.27;5.00;;;14.40;99.90;;;;;;6184756;23;20019;-42
2023/06/02 08:36:33;;;;;;;21.27;5.97;;;14.40;99.90;;;;;;6211278;23;20096;-44
2023/06/02 08:39:06;;;;;;;24.48;5.65;;;14.50;99.90;;;;;;6211733;23;20023;-42
2023/06/02 08:41:37;;;;;;;17.63;5.38;;;14.50;99.90;;;;;;6211252;23;20021;-43
2023/06/02 08:44:03;;;;;;;21.70;5.30;;;14.60;99.90;;;;;;6211654;23;20024;-42
2023/06/02 08:46:29;;;;;;;19.35;4.82;;;14.80;99.90;;;;;;6212109;23;20434;-42
2023/06/02 08:48:58;;;;;;;19.15;4.97;;;14.70;99.90;;;;;;6210268;23;20322;-46
2023/06/02 08:51:24;;;;;;;18.30;5.22;;;;;;;;;;6182712;23;20009;-43
2023/06/02 08:53:50;;;;;;;20.10;5.47;;;14.70;99.90;;;;;;6214839;23;20070;-43
2023/06/02 08:56:16;;;;;;;20.52;5.90;;;15.00;99.90;;;;;;6215136;23;20017;-43
2023/06/02 08:58:46;;;;;;;25.02;6.93;;;15.20;99.90;;;;;;6215893;23;20009;-42
2023/06/02 09:01:12;;;;;;;17.73;5.30;;;15.40;99.90;;;;;;6212593;23;20016;-42
2023/06/02 09:03:38;;;;;;;16.83;5.22;;;15.90;99.90;;;;;;6213796;23;20501;-42
2023/06/02 09:06:21;;;;;;;19.20;4.95;;;15.90;99.90;;;;;;6214751;23;20051;-42
2023/06/02 09:09:00;;;;;;;22.55;5.80;;;16.40;99.90;;;;;;6211848;23;20013;-45
2023/06/02 09:11:27;;;;;;;15.63;4.95;;;17.00;99.90;;;;;;6213637;23;20016;-44
2023/06/02 09:13:54;;;;;;;17.52;5.13;;;16.70;99.90;;;;;;6213047;23;20059;-44
2023/06/02 09:16:20;;;;;;;15.98;4.90;;;16.70;99.90;;;;;;6210691;23;20013;-44
2023/06/02 09:18:58;;;;;;;19.33;4.90;;;17.20;99.90;;;;;;6210712;23;20016;-42
2023/06/02 09:21:27;;;;;;;18.30;5.05;;;17.80;99.90;;;;;;6210464;23;20012;-43
2023/06/02 09:23:54;;;;;;;19.48;4.97;;;18.10;99.90;;;;;;6216103;23;20016;-44
2023/06/02 09:26:30;;;;;;;16.10;4.43;;;18.30;99.90;;;;;;6214821;23;20013;-43
2023/06/02 09:29:13;;;;;;;19.27;5.00;;;18.90;99.90;;;;;;6215991;23;20472;-44
2023/06/02 09:31:53;;;;;;;19.10;4.65;;;19.40;99.90;;;;;;6214153;23;20063;-45
2023/06/02 09:34:20;;;;;;;21.08;4.80;;;19.50;99.90;;;;;;6188952;23;20445;-44
2023/06/02 09:36:51;;;;;;;22.00;4.70;;;19.40;99.90;;;;;;6212669;23;20069;-45
2023/06/02 09:39:57;;;;;;;16.48;5.03;;;19.80;99.90;;;;;;6212310;23;20501;-44
2023/06/02 09:42:23;;;;;;;16.50;4.88;;;19.90;99.90;;;;;;6212125;23;20023;-45
2023/06/02 09:45:05;;;;;;;22.85;5.32;;;19.80;99.90;;;;;;6210753;23;20017;-45
2023/06/02 09:47:43;;;;;;;19.48;4.72;;;19.50;99.90;;;;;;6211201;23;20365;-44
2023/06/02 09:50:33;;;;;;;17.83;5.40;;;19.60;99.90;;;;;;6214939;23;20080;-43
2023/06/02 09:53:11;;;;;;;20.88;4.88;;;19.20;99.90;;;;;;6215206;23;20457;-43
2023/06/02 09:55:37;;;;;;;18.83;5.10;;;19.10;99.90;;;;;;6215578;23;20024;-44
2023/06/02 09:58:04;;;;;;;16.20;4.43;;;19.20;99.90;;;;;;6214428;23;20017;-45
2023/06/02 10:00:31;;;;;;;20.58;5.18;;;19.40;99.90;;;;;;6212627;23;20016;-44
2023/06/02 10:02:56;;;;;;;15.05;5.07;;;19.80;99.90;;;;;;6210617;23;20020;-45
2023/06/02 10:05:23;;;;;;;17.02;5.15;;;20.10;99.90;;;;;;6215089;23;20017;-43
2023/06/02 10:08:14;;;;;;;13.85;4.55;;;20.20;99.90;;;;;;6187149;23;20017;-45
2023/06/02 10:10:43;;;;;;;13.23;4.50;;;19.90;99.90;;;;;;6212966;23;20070;-47
2023/06/02 10:13:43;;;;;;;15.98;4.25;;;19.90;99.90;;;;;;6213342;23;20047;-43
2023/06/02 10:16:20;;;;;;;13.15;3.83;;;19.90;99.90;;;;;;6154202;23;20027;-46
2023/06/02 10:18:59;;;;;;;13.15;4.22;;;19.60;99.90;;;;;;6185709;23;20131;-47
2023/06/02 10:22:02;;;;;;;15.15;3.90;;;20.00;99.90;;;;;;6184675;23;20028;-45
2023/06/02 10:24:46;;;;;;;14.80;4.57;;;20.10;99.90;;;;;;6212323;23;20461;-43
2023/06/02 10:27:30;;;;;;;14.45;3.67;;;21.20;99.90;;;;;;6213006;23;20083;-45
2023/06/02 10:29:56;;;;;;;13.70;3.65;;;20.70;99.90;;;;;;6187671;23;20199;-44
2023/06/02 10:32:48;;;;;;;14.60;4.05;;;20.90;99.90;;;;;;6212263;23;20016;-44
2023/06/02 10:35:16;;;;;;;11.82;3.80;;;20.50;99.90;;;;;;6195569;23;20013;-44
2023/06/02 10:37:43;;;;;;;12.13;4.57;;;20.20;99.90;;;;;;6211482;23;20064;-43
2023/06/02 10:40:10;;;;;;;10.75;3.58;;;20.20;99.90;;;;;;6212075;23;20140;-43
2023/06/02 10:42:37;;;;;;;15.20;3.95;;;20.10;99.90;;;;;;6180047;23;20560;-45
2023/06/02 10:45:18;;;;;;;11.13;3.90;;;20.20;99.90;;;;;;6211263;23;20310;-45
2023/06/02 10:47:46;;;;;;;16.60;4.05;;;19.90;99.90;;;;;;6183749;23;20013;-46
2023/06/02 10:50:14;;;;;;;12.05;3.22;;;19.90;99.90;;;;;;6213258;23;20016;-44
2023/06/02 10:52:59;;;;;;;15.90;3.92;;;20.30;99.90;;;;;;6213617;23;20122;-46
2023/06/02 10:55:28;;;;;;;10.02;3.38;;;20.40;99.90;;;;;;6212222;23;20013;-44
2023/06/02 10:58:06;;;;;;;10.90;3.00;;;20.00;99.90;;;;;;6213519;23;20372;-44
2023/06/02 11:00:43;;;;;;;10.80;3.30;;;20.00;99.90;;;;;;6213834;23;20017;-44
2023/06/02 11:03:17;;;;;;;9.43;3.13;;;19.90;99.90;;;;;;6212282;23;20042;-45
2023/06/02 11:05:45;;;;;;;14.35;3.42;;;19.90;99.90;;;;;;6213023;23;20044;-43
2023/06/02 11:08:11;;;;;;;13.18;3.25;;;19.70;99.90;;;;;;6211007;23;20012;-44
2023/06/02 11:10:43;;;;;;;11.10;3.40;;;19.60;99.90;;;;;;6212993;23;20078;-45
2023/06/02 11:13:15;;;;;;;14.82;2.92;;;19.70;99.90;;;;;;6213754;23;20021;-43
2023/06/02 11:15:53;;;;;;;12.43;3.17;;;19.80;99.90;;;;;;6213119;23;20095;-43
2023/06/02 11:18:22;;;;;;;11.43;3.05;;;19.80;99.90;;;;;;6212482;23;20107;-44
2023/06/02 11:20:51;;;;;;;9.85;3.33;;;20.00;99.90;;;;;;6214264;23;20098;-43
2023/06/02 11:23:18;;;;;;;13.45;3.40;;;20.20;99.90;;;;;;6212136;23;20031;-44
2023/06/02 11:26:06;;;;;;;12.98;3.22;;;20.10;99.90;;;;;;6210623;23;20341;-45
2023/06/02 11:28:32;;;;;;;9.65;2.50;;;19.90;99.90;;;;;;6185985;23;20043;-44
2023/06/02 11:31:11;;;;;;;10.05;2.70;;;19.90;99.90;;;;;;6213443;23;20394;-45
2023/06/02 11:33:39;;;;;;;6.78;2.50;;;20.10;99.90;;;;;;6213162;23;20016;-43
2023/06/02 11:36:08;;;;;;;9.68;2.90;;;20.50;99.90;;;;;;6213485;23;20016;-45
2023/06/02 11:38:34;;;;;;;7.45;2.92;;;20.40;99.90;;;;;;6210343;23;20063;-44
2023/06/02 11:41:13;;;;;;;8.25;2.85;;;20.60;99.90;;;;;;6213434;23;20009;-44
2023/06/02 11:43:39;;;;;;;9.32;3.13;;;20.60;99.90;;;;;;6211952;23;20476;-44
2023/06/02 11:46:10;;;;;;;9.07;2.47;;;20.50;99.90;;;;;;6213644;23;20126;-41
2023/06/02 11:48:38;;;;;;;7.55;2.30;;;20.60;99.90;;;;;;6212916;23;20021;-41
2023/06/02 11:51:05;;;;;;;10.43;2.60;;;20.60;99.90;;;;;;6215504;23;20020;-42
2023/06/02 11:53:31;;;;;;;12.02;2.50;;;20.80;99.90;;;;;;6212142;23;20056;-41
2023/06/02 11:55:57;;;;;;;7.18;2.22;;;21.40;99.90;;;;;;6211598;23;20119;-44
2023/06/02 11:58:27;;;;;;;7.72;2.30;;;21.30;99.90;;;;;;6214946;23;20033;-42
2023/06/02 12:01:07;;;;;;;6.13;2.30;;;21.00;99.90;;;;;;6214587;23;20020;-42
2023/06/02 12:03:33;;;;;;;7.70;2.28;;;20.80;99.90;;;;;;6188065;23;20013;-44
2023/06/02 12:06:11;;;;;;;8.07;2.50;;;20.50;99.90;;;;;;6214995;23;20021;-44
2023/06/02 12:08:37;;;;;;;4.47;1.60;;;20.30;99.90;;;;;;6214507;23;20021;-44
2023/06/02 12:11:03;;;;;;;4.90;2.03;;;20.30;99.90;;;;;;6212843;23;20012;-44
2023/06/02 12:13:30;;;;;;;6.43;2.47;;;20.20;99.90;;;;;;6215298;23;20449;-44
2023/06/02 12:16:19;;;;;;;4.82;1.75;;;20.20;99.90;;;;;;6213308;23;20091;-43
2023/06/02 12:18:45;;;;;;;8.40;2.28;;;20.00;99.90;;;;;;6187650;23;20021;-43
2023/06/02 12:21:26;;;;;;;9.60;2.80;;;20.10;99.90;;;;;;6214093;23;20325;-43
2023/06/02 12:23:53;;;;;;;3.83;1.70;;;20.60;99.90;;;;;;6213868;23;20020;-43
2023/06/02 12:26:18;;;;;;;4.97;1.75;;;20.90;99.90;;;;;;6211960;23;20051;-45
2023/06/02 12:28:45;;;;;;;5.97;2.33;;;21.00;99.90;;;;;;6213104;23;20016;-43
2023/06/02 12:31:11;;;;;;;4.30;1.77;;;21.10;99.90;;;;;;6183710;23;20021;-44
2023/06/02 12:33:40;;;;;;;3.65;1.48;;;20.80;99.50;;;;;;6210444;23;20472;-45
2023/06/02 12:36:07;;;;;;;5.57;1.90;;;20.60;99.90;;;;;;6210967;23;20024;-43
2023/06/02 12:38:34;;;;;;;;;;;20.20;99.90;;;;;;6187401;23;20429;-44
2023/06/02 12:41:00;;;;;;;3.17;1.80;;;20.30;99.90;;;;;;6214231;23;19931;-45
2023/06/02 12:43:26;;;;;;;4.35;1.50;;;20.50;99.90;;;;;;6213381;23;20013;-45